PACV METAR and TAF weather

Enter ICAO airport designator
Station Type Date Time Source
PACV METAR 2019/05/27 08:53 UTC NOAA

PACV 270853Z 00000KT 5SM RA BR OVC028 09/07 A2993 RMK AO2 SLP137 P0004 6//// T00890072 401170089 52003 $


Station Type Date Time Source
PACV Decoded METAR 2019/05/27 08:53 UTC NOAA

MERLE K. SMITH AIRPORT, AK, United States (PACV) 60-30N 145-29W 13M
May 27, 2019 - 04:53 AM EDT / 2019.05.27 0853 UTC
Wind: Calm:0
Visibility: 5 mile(s):0
Sky conditions: overcast
Weather: rain; mist
Precipitation last hour: 0.04 inches
Temperature: 48.0 F (8.9 C)
Dew Point: 45.0 F (7.2 C)
Relative Humidity: 89%
Pressure (altimeter): 29.93 in. Hg (1013 hPa)
Pressure tendency: 0.01 inches (0.3 hPa) higher than three hours ago
ob: PACV 270853Z 00000KT 5SM RA BR OVC028 09/07 A2993 RMK AO2 SLP137 P0004 6//// T00890072 401170089 52003
cycle: 9

Station Type Date Time Source
PACV TAF 2019/05/27 06:22 UTC NOAA

TAF PACV 270520Z 2706/2806 09005KT 5SM RA BR OVC030
FM270900 09005KT 5SM -SHRA BR BKN015
FM271800 VRB04KT P6SM -SHRA OVC025
FM280000 VRB04KT P6SM VCSH SCT025 BKN040

Example: see airport list